SAN weather

San Diego International Airport
San Diego, California, United States

Public forecast

Using degrees Fahrenheit for public forecast. Weather courtesy of forecast.io.

Current aviation weather report (METAR) for San Diego International Airport

Retrieved 2019/10/23 00:51 UTC (17 minutes ago):

KSAN 230051Z 31006KT 10SM FEW010 28/05 A2994 RMK AO2 SLP139 T02780050

Aviation forecast (TAF) for San Diego International Airport

Retrieved 2019-10-23 00:22 UTC (46 minutes ago):

TAF KSAN 222320Z 2300/2406 VRB05KT P6SM SKC FM232000 27008KT P6SM SKC FM240200 VRB03KT P6SM SCT015